sensor_id;sensor_type;location;lat;lon;timestamp;P1;durP1;ratioP1;P2;durP2;ratioP2
10884;SDS011;5495;53.252;10.390;2023-03-03T00:00:58;21.63;;;11.87;;
10884;SDS011;5495;53.252;10.390;2023-03-03T00:03:38;18.17;;;11.37;;
10884;SDS011;5495;53.252;10.390;2023-03-03T00:06:08;16.03;;;10.37;;
10884;SDS011;5495;53.252;10.390;2023-03-03T00:08:39;19.27;;;12.23;;
10884;SDS011;5495;53.252;10.390;2023-03-03T00:11:18;18.80;;;12.47;;
10884;SDS011;5495;53.252;10.390;2023-03-03T00:13:52;20.97;;;12.40;;
10884;SDS011;5495;53.252;10.390;2023-03-03T00:16:27;19.87;;;12.50;;
10884;SDS011;5495;53.252;10.390;2023-03-03T00:19:11;19.40;;;12.50;;
10884;SDS011;5495;53.252;10.390;2023-03-03T00:21:46;22.93;;;13.23;;
10884;SDS011;5495;53.252;10.390;2023-03-03T00:24:21;18.07;;;11.90;;
10884;SDS011;5495;53.252;10.390;2023-03-03T00:26:50;18.93;;;12.67;;
10884;SDS011;5495;53.252;10.390;2023-03-03T00:29:27;19.37;;;12.73;;
10884;SDS011;5495;53.252;10.390;2023-03-03T00:32:14;20.40;;;12.43;;
10884;SDS011;5495;53.252;10.390;2023-03-03T00:34:55;20.13;;;13.73;;
10884;SDS011;5495;53.252;10.390;2023-03-03T00:37:44;18.83;;;13.30;;
10884;SDS011;5495;53.252;10.390;2023-03-03T00:43:01;18.93;;;13.07;;
10884;SDS011;5495;53.252;10.390;2023-03-03T00:45:41;20.83;;;13.70;;
10884;SDS011;5495;53.252;10.390;2023-03-03T00:48:24;22.80;;;14.63;;
10884;SDS011;5495;53.252;10.390;2023-03-03T00:50:55;22.67;;;13.63;;
10884;SDS011;5495;53.252;10.390;2023-03-03T00:53:26;25.03;;;15.47;;
10884;SDS011;5495;53.252;10.390;2023-03-03T00:56:00;25.80;;;15.57;;
10884;SDS011;5495;53.252;10.390;2023-03-03T00:58:28;25.50;;;15.80;;
10884;SDS011;5495;53.252;10.390;2023-03-03T01:00:58;26.17;;;16.03;;
10884;SDS011;5495;53.252;10.390;2023-03-03T01:03:26;30.23;;;17.20;;
10884;SDS011;5495;53.252;10.390;2023-03-03T01:05:59;29.17;;;17.60;;
10884;SDS011;5495;53.252;10.390;2023-03-03T01:08:39;29.80;;;17.47;;
10884;SDS011;5495;53.252;10.390;2023-03-03T01:11:07;29.43;;;17.87;;
10884;SDS011;5495;53.252;10.390;2023-03-03T01:13:38;36.37;;;19.70;;
10884;SDS011;5495;53.252;10.390;2023-03-03T01:16:08;39.37;;;20.60;;
10884;SDS011;5495;53.252;10.390;2023-03-03T01:18:36;45.30;;;22.63;;
10884;SDS011;5495;53.252;10.390;2023-03-03T01:21:04;43.93;;;23.10;;
10884;SDS011;5495;53.252;10.390;2023-03-03T01:23:31;42.27;;;23.37;;
10884;SDS011;5495;53.252;10.390;2023-03-03T01:26:03;46.00;;;23.70;;
10884;SDS011;5495;53.252;10.390;2023-03-03T01:28:33;48.30;;;22.77;;
10884;SDS011;5495;53.252;10.390;2023-03-03T01:31:03;43.33;;;22.00;;
10884;SDS011;5495;53.252;10.390;2023-03-03T01:33:34;44.03;;;22.27;;
10884;SDS011;5495;53.252;10.390;2023-03-03T01:36:03;43.33;;;22.07;;
10884;SDS011;5495;53.252;10.390;2023-03-03T01:38:34;43.67;;;21.83;;
10884;SDS011;5495;53.252;10.390;2023-03-03T01:41:09;45.67;;;23.17;;
10884;SDS011;5495;53.252;10.390;2023-03-03T01:43:41;45.83;;;24.80;;
10884;SDS011;5495;53.252;10.390;2023-03-03T01:46:24;52.97;;;26.33;;
10884;SDS011;5495;53.252;10.390;2023-03-03T01:49:19;51.90;;;24.90;;
10884;SDS011;5495;53.252;10.390;2023-03-03T01:51:55;57.07;;;26.87;;
10884;SDS011;5495;53.252;10.390;2023-03-03T01:54:29;52.37;;;24.90;;
10884;SDS011;5495;53.252;10.390;2023-03-03T01:57:05;57.90;;;25.20;;
10884;SDS011;5495;53.252;10.390;2023-03-03T01:59:44;56.20;;;25.37;;
10884;SDS011;5495;53.252;10.390;2023-03-03T02:02:18;57.03;;;25.73;;
10884;SDS011;5495;53.252;10.390;2023-03-03T02:04:46;52.77;;;24.90;;
10884;SDS011;5495;53.252;10.390;2023-03-03T02:07:16;50.50;;;24.80;;
10884;SDS011;5495;53.252;10.390;2023-03-03T02:09:51;50.10;;;24.73;;
10884;SDS011;5495;53.252;10.390;2023-03-03T02:12:35;51.73;;;25.40;;
10884;SDS011;5495;53.252;10.390;2023-03-03T02:15:17;48.13;;;23.17;;
10884;SDS011;5495;53.252;10.390;2023-03-03T02:17:46;51.87;;;23.40;;
10884;SDS011;5495;53.252;10.390;2023-03-03T02:20:16;44.43;;;23.53;;
10884;SDS011;5495;53.252;10.390;2023-03-03T02:22:56;51.40;;;24.37;;
10884;SDS011;5495;53.252;10.390;2023-03-03T02:25:41;49.20;;;23.73;;
10884;SDS011;5495;53.252;10.390;2023-03-03T02:28:17;40.50;;;21.90;;
10884;SDS011;5495;53.252;10.390;2023-03-03T02:30:53;44.90;;;22.17;;
10884;SDS011;5495;53.252;10.390;2023-03-03T02:33:21;42.93;;;21.37;;
10884;SDS011;5495;53.252;10.390;2023-03-03T02:35:50;42.87;;;21.87;;
10884;SDS011;5495;53.252;10.390;2023-03-03T02:38:31;45.97;;;22.33;;
10884;SDS011;5495;53.252;10.390;2023-03-03T02:41:20;38.80;;;21.20;;
10884;SDS011;5495;53.252;10.390;2023-03-03T02:44:01;43.90;;;21.57;;
10884;SDS011;5495;53.252;10.390;2023-03-03T02:46:31;40.50;;;21.47;;
10884;SDS011;5495;53.252;10.390;2023-03-03T02:49:10;43.43;;;21.17;;
10884;SDS011;5495;53.252;10.390;2023-03-03T02:51:41;47.33;;;22.03;;
10884;SDS011;5495;53.252;10.390;2023-03-03T02:54:10;46.23;;;22.60;;
10884;SDS011;5495;53.252;10.390;2023-03-03T02:56:39;43.37;;;22.67;;
10884;SDS011;5495;53.252;10.390;2023-03-03T02:59:08;45.83;;;22.93;;
10884;SDS011;5495;53.252;10.390;2023-03-03T03:01:36;41.87;;;21.50;;
10884;SDS011;5495;53.252;10.390;2023-03-03T03:04:04;48.93;;;22.90;;
10884;SDS011;5495;53.252;10.390;2023-03-03T03:06:34;46.37;;;23.33;;
10884;SDS011;5495;53.252;10.390;2023-03-03T03:09:06;45.33;;;21.90;;
10884;SDS011;5495;53.252;10.390;2023-03-03T03:11:37;49.00;;;23.53;;
10884;SDS011;5495;53.252;10.390;2023-03-03T03:14:06;52.50;;;25.20;;
10884;SDS011;5495;53.252;10.390;2023-03-03T03:16:44;48.60;;;24.83;;
10884;SDS011;5495;53.252;10.390;2023-03-03T03:19:14;45.80;;;22.60;;
10884;SDS011;5495;53.252;10.390;2023-03-03T03:21:44;44.60;;;23.13;;
10884;SDS011;5495;53.252;10.390;2023-03-03T03:24:22;46.33;;;22.03;;
10884;SDS011;5495;53.252;10.390;2023-03-03T03:26:49;49.03;;;22.70;;
10884;SDS011;5495;53.252;10.390;2023-03-03T03:29:18;52.23;;;23.33;;
10884;SDS011;5495;53.252;10.390;2023-03-03T03:31:49;43.97;;;22.73;;
10884;SDS011;5495;53.252;10.390;2023-03-03T03:34:28;51.47;;;23.63;;
10884;SDS011;5495;53.252;10.390;2023-03-03T03:36:55;51.73;;;24.07;;
10884;SDS011;5495;53.252;10.390;2023-03-03T03:39:27;45.80;;;22.27;;
10884;SDS011;5495;53.252;10.390;2023-03-03T03:41:55;43.03;;;22.03;;
10884;SDS011;5495;53.252;10.390;2023-03-03T03:44:30;41.80;;;22.17;;
10884;SDS011;5495;53.252;10.390;2023-03-03T03:47:10;46.10;;;23.67;;
10884;SDS011;5495;53.252;10.390;2023-03-03T03:49:45;44.73;;;23.83;;
10884;SDS011;5495;53.252;10.390;2023-03-03T03:52:16;48.07;;;22.87;;
10884;SDS011;5495;53.252;10.390;2023-03-03T03:54:43;48.23;;;23.40;;
10884;SDS011;5495;53.252;10.390;2023-03-03T03:57:13;50.57;;;23.27;;
10884;SDS011;5495;53.252;10.390;2023-03-03T03:59:54;46.93;;;22.97;;
10884;SDS011;5495;53.252;10.390;2023-03-03T04:02:32;48.23;;;24.53;;
10884;SDS011;5495;53.252;10.390;2023-03-03T04:04:59;46.33;;;23.33;;
10884;SDS011;5495;53.252;10.390;2023-03-03T04:07:27;49.27;;;23.37;;
10884;SDS011;5495;53.252;10.390;2023-03-03T04:09:54;52.17;;;23.43;;
10884;SDS011;5495;53.252;10.390;2023-03-03T04:12:24;50.30;;;24.20;;
10884;SDS011;5495;53.252;10.390;2023-03-03T04:14:59;52.63;;;24.23;;
10884;SDS011;5495;53.252;10.390;2023-03-03T04:17:27;50.63;;;24.80;;
10884;SDS011;5495;53.252;10.390;2023-03-03T04:19:54;48.20;;;23.73;;
10884;SDS011;5495;53.252;10.390;2023-03-03T04:22:22;49.80;;;24.90;;
10884;SDS011;5495;53.252;10.390;2023-03-03T04:24:49;45.70;;;23.30;;
10884;SDS011;5495;53.252;10.390;2023-03-03T04:27:17;49.13;;;24.37;;
10884;SDS011;5495;53.252;10.390;2023-03-03T04:29:50;45.77;;;21.53;;
10884;SDS011;5495;53.252;10.390;2023-03-03T04:32:21;48.40;;;22.37;;
10884;SDS011;5495;53.252;10.390;2023-03-03T04:34:52;46.13;;;22.13;;
10884;SDS011;5495;53.252;10.390;2023-03-03T04:37:29;43.03;;;21.43;;
10884;SDS011;5495;53.252;10.390;2023-03-03T04:39:58;41.33;;;21.90;;
10884;SDS011;5495;53.252;10.390;2023-03-03T04:42:27;40.53;;;21.23;;
10884;SDS011;5495;53.252;10.390;2023-03-03T04:45:02;47.07;;;22.93;;
10884;SDS011;5495;53.252;10.390;2023-03-03T04:47:36;49.93;;;25.00;;
10884;SDS011;5495;53.252;10.390;2023-03-03T04:50:04;45.60;;;22.17;;
10884;SDS011;5495;53.252;10.390;2023-03-03T04:52:33;43.97;;;22.03;;
10884;SDS011;5495;53.252;10.390;2023-03-03T04:55:02;43.90;;;22.00;;
10884;SDS011;5495;53.252;10.390;2023-03-03T04:57:30;41.23;;;21.20;;
10884;SDS011;5495;53.252;10.390;2023-03-03T05:00:01;47.00;;;23.00;;
10884;SDS011;5495;53.252;10.390;2023-03-03T05:02:30;42.37;;;20.77;;
10884;SDS011;5495;53.252;10.390;2023-03-03T05:05:07;41.33;;;20.83;;
10884;SDS011;5495;53.252;10.390;2023-03-03T05:07:38;42.00;;;21.97;;
10884;SDS011;5495;53.252;10.390;2023-03-03T05:10:09;43.90;;;22.10;;
10884;SDS011;5495;53.252;10.390;2023-03-03T05:12:37;39.80;;;21.13;;
10884;SDS011;5495;53.252;10.390;2023-03-03T05:15:10;40.87;;;21.50;;
10884;SDS011;5495;53.252;10.390;2023-03-03T05:17:46;40.80;;;20.60;;
10884;SDS011;5495;53.252;10.390;2023-03-03T05:20:18;44.30;;;22.03;;
10884;SDS011;5495;53.252;10.390;2023-03-03T05:22:52;42.77;;;22.00;;
10884;SDS011;5495;53.252;10.390;2023-03-03T05:25:27;38.37;;;21.03;;
10884;SDS011;5495;53.252;10.390;2023-03-03T05:27:55;40.23;;;21.47;;
10884;SDS011;5495;53.252;10.390;2023-03-03T05:30:25;39.70;;;20.73;;
10884;SDS011;5495;53.252;10.390;2023-03-03T05:32:56;39.20;;;20.03;;
10884;SDS011;5495;53.252;10.390;2023-03-03T05:35:33;40.53;;;20.63;;
10884;SDS011;5495;53.252;10.390;2023-03-03T05:38:04;37.90;;;20.33;;
10884;SDS011;5495;53.252;10.390;2023-03-03T05:40:38;41.97;;;19.90;;
10884;SDS011;5495;53.252;10.390;2023-03-03T05:43:06;37.50;;;19.80;;
10884;SDS011;5495;53.252;10.390;2023-03-03T05:45:34;41.43;;;20.90;;
10884;SDS011;5495;53.252;10.390;2023-03-03T05:48:24;37.87;;;19.07;;
10884;SDS011;5495;53.252;10.390;2023-03-03T05:50:59;34.23;;;18.47;;
10884;SDS011;5495;53.252;10.390;2023-03-03T05:53:28;38.17;;;19.33;;
10884;SDS011;5495;53.252;10.390;2023-03-03T05:56:03;40.33;;;19.40;;
10884;SDS011;5495;53.252;10.390;2023-03-03T05:58:36;35.67;;;19.57;;
10884;SDS011;5495;53.252;10.390;2023-03-03T06:01:09;35.60;;;18.27;;
10884;SDS011;5495;53.252;10.390;2023-03-03T06:03:53;38.03;;;19.43;;
10884;SDS011;5495;53.252;10.390;2023-03-03T06:06:23;38.03;;;19.80;;
10884;SDS011;5495;53.252;10.390;2023-03-03T06:08:59;35.40;;;18.77;;
10884;SDS011;5495;53.252;10.390;2023-03-03T06:11:27;37.77;;;19.20;;
10884;SDS011;5495;53.252;10.390;2023-03-03T06:14:01;33.67;;;18.00;;
10884;SDS011;5495;53.252;10.390;2023-03-03T06:16:31;40.80;;;19.20;;
10884;SDS011;5495;53.252;10.390;2023-03-03T06:19:02;37.17;;;18.93;;
10884;SDS011;5495;53.252;10.390;2023-03-03T06:21:31;36.57;;;19.00;;
10884;SDS011;5495;53.252;10.390;2023-03-03T06:24:06;38.30;;;18.90;;
10884;SDS011;5495;53.252;10.390;2023-03-03T06:26:37;35.97;;;18.77;;
10884;SDS011;5495;53.252;10.390;2023-03-03T06:29:08;42.03;;;20.07;;
10884;SDS011;5495;53.252;10.390;2023-03-03T06:31:37;35.23;;;18.57;;
10884;SDS011;5495;53.252;10.390;2023-03-03T06:34:09;39.77;;;19.03;;
10884;SDS011;5495;53.252;10.390;2023-03-03T06:36:42;36.57;;;18.97;;
10884;SDS011;5495;53.252;10.390;2023-03-03T06:39:15;37.03;;;19.13;;
10884;SDS011;5495;53.252;10.390;2023-03-03T06:41:43;37.80;;;19.77;;
10884;SDS011;5495;53.252;10.390;2023-03-03T06:44:35;34.03;;;18.13;;
10884;SDS011;5495;53.252;10.390;2023-03-03T06:47:07;40.27;;;19.50;;
10884;SDS011;5495;53.252;10.390;2023-03-03T06:49:37;34.17;;;18.00;;
10884;SDS011;5495;53.252;10.390;2023-03-03T06:52:27;34.47;;;17.80;;
10884;SDS011;5495;53.252;10.390;2023-03-03T06:54:56;33.93;;;17.80;;
10884;SDS011;5495;53.252;10.390;2023-03-03T06:57:49;35.90;;;17.63;;
10884;SDS011;5495;53.252;10.390;2023-03-03T07:00:48;32.97;;;16.77;;
10884;SDS011;5495;53.252;10.390;2023-03-03T07:03:33;38.77;;;17.83;;
10884;SDS011;5495;53.252;10.390;2023-03-03T07:06:14;34.27;;;18.07;;
10884;SDS011;5495;53.252;10.390;2023-03-03T07:08:49;30.23;;;17.10;;
10884;SDS011;5495;53.252;10.390;2023-03-03T07:11:24;33.90;;;17.50;;
10884;SDS011;5495;53.252;10.390;2023-03-03T07:13:56;34.13;;;17.30;;
10884;SDS011;5495;53.252;10.390;2023-03-03T07:16:26;33.33;;;17.53;;
10884;SDS011;5495;53.252;10.390;2023-03-03T07:18:59;34.00;;;17.50;;
10884;SDS011;5495;53.252;10.390;2023-03-03T07:21:38;36.17;;;18.33;;
10884;SDS011;5495;53.252;10.390;2023-03-03T07:24:26;37.17;;;18.87;;
10884;SDS011;5495;53.252;10.390;2023-03-03T07:26:58;38.00;;;19.17;;
10884;SDS011;5495;53.252;10.390;2023-03-03T07:29:37;35.23;;;18.00;;
10884;SDS011;5495;53.252;10.390;2023-03-03T07:32:20;33.03;;;17.93;;
10884;SDS011;5495;53.252;10.390;2023-03-03T07:34:55;35.17;;;18.53;;
10884;SDS011;5495;53.252;10.390;2023-03-03T07:37:44;31.60;;;17.33;;
10884;SDS011;5495;53.252;10.390;2023-03-03T07:40:40;34.77;;;17.60;;
10884;SDS011;5495;53.252;10.390;2023-03-03T07:46:16;32.00;;;15.60;;
10884;SDS011;5495;53.252;10.390;2023-03-03T07:48:53;29.37;;;15.50;;
10884;SDS011;5495;53.252;10.390;2023-03-03T07:51:46;30.37;;;15.73;;
10884;SDS011;5495;53.252;10.390;2023-03-03T07:57:26;26.63;;;14.53;;
10884;SDS011;5495;53.252;10.390;2023-03-03T08:00:41;31.03;;;16.70;;
10884;SDS011;5495;53.252;10.390;2023-03-03T08:03:09;27.20;;;15.80;;
10884;SDS011;5495;53.252;10.390;2023-03-03T08:05:46;27.80;;;15.17;;
10884;SDS011;5495;53.252;10.390;2023-03-03T08:08:32;30.03;;;15.47;;
10884;SDS011;5495;53.252;10.390;2023-03-03T08:11:23;27.20;;;15.13;;
10884;SDS011;5495;53.252;10.390;2023-03-03T08:14:12;24.40;;;14.47;;
10884;SDS011;5495;53.252;10.390;2023-03-03T08:16:53;28.67;;;14.83;;
10884;SDS011;5495;53.252;10.390;2023-03-03T08:19:34;25.33;;;14.70;;
10884;SDS011;5495;53.252;10.390;2023-03-03T08:22:08;24.10;;;13.93;;
10884;SDS011;5495;53.252;10.390;2023-03-03T08:24:48;26.60;;;14.53;;
10884;SDS011;5495;53.252;10.390;2023-03-03T08:27:22;25.87;;;13.70;;
10884;SDS011;5495;53.252;10.390;2023-03-03T08:30:09;26.47;;;15.33;;
10884;SDS011;5495;53.252;10.390;2023-03-03T08:32:53;27.17;;;14.77;;
10884;SDS011;5495;53.252;10.390;2023-03-03T08:38:29;25.17;;;14.90;;
10884;SDS011;5495;53.252;10.390;2023-03-03T08:41:00;30.00;;;14.20;;
10884;SDS011;5495;53.252;10.390;2023-03-03T08:43:29;22.60;;;13.77;;
10884;SDS011;5495;53.252;10.390;2023-03-03T08:46:01;23.80;;;14.53;;
10884;SDS011;5495;53.252;10.390;2023-03-03T08:48:39;27.77;;;14.63;;
10884;SDS011;5495;53.252;10.390;2023-03-03T08:54:30;25.60;;;13.60;;
10884;SDS011;5495;53.252;10.390;2023-03-03T08:57:09;25.37;;;14.60;;
10884;SDS011;5495;53.252;10.390;2023-03-03T08:59:38;25.00;;;14.10;;
10884;SDS011;5495;53.252;10.390;2023-03-03T09:02:15;23.37;;;14.17;;
10884;SDS011;5495;53.252;10.390;2023-03-03T09:04:44;24.83;;;14.30;;
10884;SDS011;5495;53.252;10.390;2023-03-03T09:07:15;23.17;;;13.70;;
10884;SDS011;5495;53.252;10.390;2023-03-03T09:09:55;24.63;;;13.77;;
10884;SDS011;5495;53.252;10.390;2023-03-03T09:12:28;26.13;;;14.33;;
10884;SDS011;5495;53.252;10.390;2023-03-03T09:15:11;19.53;;;12.20;;
10884;SDS011;5495;53.252;10.390;2023-03-03T09:17:51;22.73;;;13.43;;
10884;SDS011;5495;53.252;10.390;2023-03-03T09:20:26;22.20;;;13.20;;
10884;SDS011;5495;53.252;10.390;2023-03-03T09:23:31;20.23;;;12.57;;
10884;SDS011;5495;53.252;10.390;2023-03-03T09:26:25;21.43;;;13.03;;
10884;SDS011;5495;53.252;10.390;2023-03-03T09:28:59;22.07;;;12.57;;
10884;SDS011;5495;53.252;10.390;2023-03-03T09:32:06;20.53;;;11.97;;
10884;SDS011;5495;53.252;10.390;2023-03-03T09:34:50;20.03;;;12.67;;
10884;SDS011;5495;53.252;10.390;2023-03-03T09:37:21;19.77;;;12.17;;
10884;SDS011;5495;53.252;10.390;2023-03-03T09:39:54;21.43;;;12.50;;
10884;SDS011;5495;53.252;10.390;2023-03-03T09:51:24;19.70;;;11.13;;
10884;SDS011;5495;53.252;10.390;2023-03-03T09:54:41;19.87;;;11.93;;
10884;SDS011;5495;53.252;10.390;2023-03-03T09:57:19;21.33;;;12.17;;
10884;SDS011;5495;53.252;10.390;2023-03-03T10:00:19;18.73;;;11.40;;
10884;SDS011;5495;53.252;10.390;2023-03-03T10:03:14;19.60;;;11.63;;
10884;SDS011;5495;53.252;10.390;2023-03-03T10:06:25;18.70;;;11.67;;
10884;SDS011;5495;53.252;10.390;2023-03-03T10:09:28;20.17;;;11.47;;
10884;SDS011;5495;53.252;10.390;2023-03-03T10:12:30;18.93;;;11.33;;
10884;SDS011;5495;53.252;10.390;2023-03-03T10:15:17;19.60;;;11.37;;
10884;SDS011;5495;53.252;10.390;2023-03-03T10:18:12;17.93;;;11.67;;
10884;SDS011;5495;53.252;10.390;2023-03-03T10:20:58;18.40;;;11.13;;
10884;SDS011;5495;53.252;10.390;2023-03-03T10:23:50;18.17;;;11.53;;
10884;SDS011;5495;53.252;10.390;2023-03-03T10:26:26;16.63;;;10.97;;
10884;SDS011;5495;53.252;10.390;2023-03-03T10:29:19;14.33;;;10.10;;
10884;SDS011;5495;53.252;10.390;2023-03-03T10:38:04;13.93;;;8.63;;
10884;SDS011;5495;53.252;10.390;2023-03-03T10:41:05;15.87;;;10.53;;
10884;SDS011;5495;53.252;10.390;2023-03-03T10:43:50;15.50;;;10.07;;
10884;SDS011;5495;53.252;10.390;2023-03-03T10:46:48;13.70;;;9.33;;
10884;SDS011;5495;53.252;10.390;2023-03-03T10:49:39;15.30;;;9.60;;
10884;SDS011;5495;53.252;10.390;2023-03-03T10:52:28;12.93;;;8.83;;
10884;SDS011;5495;53.252;10.390;2023-03-03T10:55:20;11.67;;;8.30;;
10884;SDS011;5495;53.252;10.390;2023-03-03T10:58:06;13.07;;;8.70;;
10884;SDS011;5495;53.252;10.390;2023-03-03T11:00:48;12.50;;;8.30;;
10884;SDS011;5495;53.252;10.390;2023-03-03T11:06:39;11.23;;;7.63;;
10884;SDS011;5495;53.252;10.390;2023-03-03T11:09:29;13.10;;;8.60;;
10884;SDS011;5495;53.252;10.390;2023-03-03T11:12:19;12.00;;;8.13;;
10884;SDS011;5495;53.252;10.390;2023-03-03T11:14:55;11.23;;;8.07;;
10884;SDS011;5495;53.252;10.390;2023-03-03T11:17:43;11.00;;;7.43;;
10884;SDS011;5495;53.252;10.390;2023-03-03T11:20:25;11.80;;;8.00;;
10884;SDS011;5495;53.252;10.390;2023-03-03T11:23:00;10.13;;;7.80;;
10884;SDS011;5495;53.252;10.390;2023-03-03T11:25:48;10.17;;;7.40;;
10884;SDS011;5495;53.252;10.390;2023-03-03T11:28:36;9.40;;;7.13;;
10884;SDS011;5495;53.252;10.390;2023-03-03T11:31:24;10.30;;;7.77;;
10884;SDS011;5495;53.252;10.390;2023-03-03T11:34:03;10.07;;;7.33;;
10884;SDS011;5495;53.252;10.390;2023-03-03T11:36:41;8.70;;;6.90;;
10884;SDS011;5495;53.252;10.390;2023-03-03T11:39:21;11.40;;;7.30;;
10884;SDS011;5495;53.252;10.390;2023-03-03T11:41:54;9.93;;;7.90;;
10884;SDS011;5495;53.252;10.390;2023-03-03T11:44:31;11.10;;;7.63;;
10884;SDS011;5495;53.252;10.390;2023-03-03T11:47:09;11.50;;;8.23;;
10884;SDS011;5495;53.252;10.390;2023-03-03T11:49:46;11.93;;;8.60;;
10884;SDS011;5495;53.252;10.390;2023-03-03T11:52:21;10.43;;;7.73;;
10884;SDS011;5495;53.252;10.390;2023-03-03T11:55:01;11.10;;;8.33;;
10884;SDS011;5495;53.252;10.390;2023-03-03T11:57:35;10.57;;;8.50;;
10884;SDS011;5495;53.252;10.390;2023-03-03T12:03:20;10.17;;;8.07;;
10884;SDS011;5495;53.252;10.390;2023-03-03T12:06:05;9.70;;;8.00;;
10884;SDS011;5495;53.252;10.390;2023-03-03T12:08:54;9.67;;;8.07;;
10884;SDS011;5495;53.252;10.390;2023-03-03T12:12:05;10.80;;;8.63;;
10884;SDS011;5495;53.252;10.390;2023-03-03T12:21:09;11.77;;;8.50;;
10884;SDS011;5495;53.252;10.390;2023-03-03T12:24:25;10.77;;;8.63;;
10884;SDS011;5495;53.252;10.390;2023-03-03T12:27:18;9.67;;;7.90;;
10884;SDS011;5495;53.252;10.390;2023-03-03T12:33:25;9.63;;;7.43;;
10884;SDS011;5495;53.252;10.390;2023-03-03T12:36:12;8.33;;;6.97;;
10884;SDS011;5495;53.252;10.390;2023-03-03T12:38:55;9.47;;;7.10;;
10884;SDS011;5495;53.252;10.390;2023-03-03T12:41:48;8.70;;;6.63;;
10884;SDS011;5495;53.252;10.390;2023-03-03T12:44:43;8.77;;;7.17;;
10884;SDS011;5495;53.252;10.390;2023-03-03T12:47:35;10.80;;;7.03;;
10884;SDS011;5495;53.252;10.390;2023-03-03T12:50:22;8.57;;;5.63;;
10884;SDS011;5495;53.252;10.390;2023-03-03T12:55:59;7.47;;;5.57;;
10884;SDS011;5495;53.252;10.390;2023-03-03T12:58:36;8.10;;;6.00;;
10884;SDS011;5495;53.252;10.390;2023-03-03T13:01:20;9.40;;;5.77;;
10884;SDS011;5495;53.252;10.390;2023-03-03T13:04:05;9.17;;;6.40;;
10884;SDS011;5495;53.252;10.390;2023-03-03T13:06:55;10.17;;;6.27;;
10884;SDS011;5495;53.252;10.390;2023-03-03T13:09:37;8.63;;;5.43;;
10884;SDS011;5495;53.252;10.390;2023-03-03T13:12:26;7.73;;;5.47;;
10884;SDS011;5495;53.252;10.390;2023-03-03T13:15:01;9.60;;;5.70;;
10884;SDS011;5495;53.252;10.390;2023-03-03T13:17:47;9.40;;;5.63;;
10884;SDS011;5495;53.252;10.390;2023-03-03T13:20:29;11.20;;;6.30;;
10884;SDS011;5495;53.252;10.390;2023-03-03T13:23:07;11.50;;;6.07;;
10884;SDS011;5495;53.252;10.390;2023-03-03T13:25:50;8.03;;;5.77;;
10884;SDS011;5495;53.252;10.390;2023-03-03T13:28:27;8.53;;;6.10;;
10884;SDS011;5495;53.252;10.390;2023-03-03T13:31:11;10.23;;;6.00;;
10884;SDS011;5495;53.252;10.390;2023-03-03T13:33:50;11.10;;;6.77;;
10884;SDS011;5495;53.252;10.390;2023-03-03T13:36:29;11.00;;;6.70;;
10884;SDS011;5495;53.252;10.390;2023-03-03T13:39:01;9.30;;;6.07;;
10884;SDS011;5495;53.252;10.390;2023-03-03T13:41:54;10.93;;;6.50;;
10884;SDS011;5495;53.252;10.390;2023-03-03T13:44:40;11.73;;;6.03;;
10884;SDS011;5495;53.252;10.390;2023-03-03T13:47:17;8.50;;;5.33;;
10884;SDS011;5495;53.252;10.390;2023-03-03T13:52:50;8.93;;;5.00;;
10884;SDS011;5495;53.252;10.390;2023-03-03T13:55:39;8.10;;;5.17;;
10884;SDS011;5495;53.252;10.390;2023-03-03T13:58:18;8.87;;;5.27;;
10884;SDS011;5495;53.252;10.390;2023-03-03T14:00:54;12.50;;;5.97;;
10884;SDS011;5495;53.252;10.390;2023-03-03T14:06:26;9.07;;;5.37;;
10884;SDS011;5495;53.252;10.390;2023-03-03T14:12:09;9.63;;;5.47;;
10884;SDS011;5495;53.252;10.390;2023-03-03T14:14:54;8.80;;;5.40;;
10884;SDS011;5495;53.252;10.390;2023-03-03T14:17:31;11.07;;;5.80;;
10884;SDS011;5495;53.252;10.390;2023-03-03T14:20:28;7.73;;;5.30;;
10884;SDS011;5495;53.252;10.390;2023-03-03T14:23:11;9.73;;;5.53;;
10884;SDS011;5495;53.252;10.390;2023-03-03T14:25:55;8.17;;;5.23;;
10884;SDS011;5495;53.252;10.390;2023-03-03T14:28:38;11.47;;;5.43;;
10884;SDS011;5495;53.252;10.390;2023-03-03T14:31:21;9.07;;;4.83;;
10884;SDS011;5495;53.252;10.390;2023-03-03T14:33:59;7.97;;;4.43;;
10884;SDS011;5495;53.252;10.390;2023-03-03T14:36:29;7.23;;;3.93;;
10884;SDS011;5495;53.252;10.390;2023-03-03T14:38:58;6.67;;;3.87;;
10884;SDS011;5495;53.252;10.390;2023-03-03T14:41:38;5.83;;;3.70;;
10884;SDS011;5495;53.252;10.390;2023-03-03T14:44:37;6.37;;;3.60;;
10884;SDS011;5495;53.252;10.390;2023-03-03T14:47:22;9.97;;;4.07;;
10884;SDS011;5495;53.252;10.390;2023-03-03T14:49:51;6.57;;;4.17;;
10884;SDS011;5495;53.252;10.390;2023-03-03T14:52:32;9.13;;;4.10;;
10884;SDS011;5495;53.252;10.390;2023-03-03T14:57:57;9.57;;;3.90;;
10884;SDS011;5495;53.252;10.390;2023-03-03T15:00:38;7.73;;;3.50;;
10884;SDS011;5495;53.252;10.390;2023-03-03T15:03:22;9.20;;;3.93;;
10884;SDS011;5495;53.252;10.390;2023-03-03T15:06:00;4.80;;;3.27;;
10884;SDS011;5495;53.252;10.390;2023-03-03T15:08:31;8.40;;;3.50;;
10884;SDS011;5495;53.252;10.390;2023-03-03T15:11:19;7.03;;;3.33;;
10884;SDS011;5495;53.252;10.390;2023-03-03T15:14:12;6.20;;;3.00;;
10884;SDS011;5495;53.252;10.390;2023-03-03T15:16:52;5.23;;;2.90;;
10884;SDS011;5495;53.252;10.390;2023-03-03T15:22:50;4.97;;;2.50;;
10884;SDS011;5495;53.252;10.390;2023-03-03T15:25:27;3.57;;;2.10;;
10884;SDS011;5495;53.252;10.390;2023-03-03T15:28:02;5.83;;;2.30;;
10884;SDS011;5495;53.252;10.390;2023-03-03T15:30:50;2.17;;;1.80;;
10884;SDS011;5495;53.252;10.390;2023-03-03T15:33:24;5.73;;;2.33;;
10884;SDS011;5495;53.252;10.390;2023-03-03T15:36:00;3.93;;;1.93;;
10884;SDS011;5495;53.252;10.390;2023-03-03T15:38:48;5.33;;;2.10;;
10884;SDS011;5495;53.252;10.390;2023-03-03T15:41:25;6.27;;;2.40;;
10884;SDS011;5495;53.252;10.390;2023-03-03T15:44:04;6.97;;;2.77;;
10884;SDS011;5495;53.252;10.390;2023-03-03T15:46:42;3.20;;;1.90;;
10884;SDS011;5495;53.252;10.390;2023-03-03T15:49:50;3.63;;;2.47;;
10884;SDS011;5495;53.252;10.390;2023-03-03T15:52:39;5.20;;;2.60;;
10884;SDS011;5495;53.252;10.390;2023-03-03T15:55:19;9.57;;;2.50;;
10884;SDS011;5495;53.252;10.390;2023-03-03T15:58:03;4.57;;;2.67;;
10884;SDS011;5495;53.252;10.390;2023-03-03T16:00:53;5.53;;;2.37;;
10884;SDS011;5495;53.252;10.390;2023-03-03T16:03:35;4.07;;;2.37;;
10884;SDS011;5495;53.252;10.390;2023-03-03T16:06:10;6.23;;;3.07;;
10884;SDS011;5495;53.252;10.390;2023-03-03T16:08:47;8.00;;;2.77;;
10884;SDS011;5495;53.252;10.390;2023-03-03T16:11:26;4.60;;;2.57;;
10884;SDS011;5495;53.252;10.390;2023-03-03T16:14:09;4.57;;;2.47;;
10884;SDS011;5495;53.252;10.390;2023-03-03T16:16:53;3.93;;;2.60;;
10884;SDS011;5495;53.252;10.390;2023-03-03T16:19:30;5.17;;;2.47;;
10884;SDS011;5495;53.252;10.390;2023-03-03T16:22:16;7.23;;;2.50;;
10884;SDS011;5495;53.252;10.390;2023-03-03T16:28:05;2.90;;;1.80;;
10884;SDS011;5495;53.252;10.390;2023-03-03T16:30:43;5.80;;;2.07;;
10884;SDS011;5495;53.252;10.390;2023-03-03T16:36:20;5.33;;;1.70;;
10884;SDS011;5495;53.252;10.390;2023-03-03T16:38:58;3.80;;;2.00;;
10884;SDS011;5495;53.252;10.390;2023-03-03T16:41:37;6.27;;;2.00;;
10884;SDS011;5495;53.252;10.390;2023-03-03T16:44:15;5.07;;;1.70;;